createdAt,value
2023-04-02T00:46:45.511Z,2.10
2023-04-02T00:51:53.708Z,2.10
2023-04-02T00:56:58.818Z,2.10
2023-04-02T01:02:26.967Z,2.10
2023-04-02T01:08:02.746Z,2.30
2023-04-02T01:13:23.053Z,2.20
2023-04-02T01:18:46.484Z,2.40
2023-04-02T01:24:02.487Z,2.30
2023-04-02T01:29:13.440Z,2.30
2023-04-02T01:34:19.950Z,2.50
2023-04-02T01:39:40.581Z,2.50
2023-04-02T01:44:49.900Z,2.50
2023-04-02T01:49:58.202Z,2.50
2023-04-02T01:55:01.133Z,2.40
2023-04-02T02:00:07.460Z,2.20
2023-04-02T02:05:20.125Z,2.20
2023-04-02T02:10:29.179Z,2.20
2023-04-02T02:15:36.466Z,2.20
2023-04-02T02:20:40.369Z,2.20
2023-04-02T02:25:45.332Z,2.10
2023-04-02T02:30:55.366Z,2.20
2023-04-02T02:36:03.048Z,2.50
2023-04-02T02:41:18.820Z,2.10
2023-04-02T02:46:27.247Z,2.10
2023-04-02T02:51:42.591Z,2.00
2023-04-02T02:56:55.005Z,2.00
2023-04-02T03:02:00.728Z,1.90
2023-04-02T03:07:05.165Z,1.70
2023-04-02T03:12:28.342Z,1.90
2023-04-02T03:17:39.827Z,2.00
2023-04-02T03:22:53.453Z,2.00
2023-04-02T03:28:03.094Z,2.00
2023-04-02T03:33:17.223Z,2.00
2023-04-02T03:38:28.314Z,2.10
2023-04-02T03:43:37.376Z,2.00
2023-04-02T03:48:45.886Z,2.20
2023-04-02T03:53:50.065Z,2.20
2023-04-02T03:59:03.268Z,2.10
2023-04-02T04:04:16.759Z,2.00
2023-04-02T04:09:27.017Z,1.80
2023-04-02T04:14:33.056Z,1.90
2023-04-02T04:19:45.834Z,2.00
2023-04-02T04:24:50.831Z,2.20
2023-04-02T04:30:04.289Z,2.10
2023-04-02T04:35:24.322Z,1.90
2023-04-02T04:40:34.314Z,1.90
2023-04-02T04:45:44.986Z,1.60
2023-04-02T04:50:59.422Z,1.90
2023-04-02T04:56:16.544Z,1.80
2023-04-02T05:01:33.027Z,1.80
2023-04-02T05:06:43.489Z,1.80
2023-04-02T05:12:00.437Z,2.00
2023-04-02T05:17:10.427Z,1.90
2023-04-02T05:22:27.976Z,2.00
2023-04-02T05:27:41.853Z,2.10
2023-04-02T05:32:54.180Z,2.00
2023-04-02T05:37:59.138Z,1.90
2023-04-02T05:43:09.242Z,2.00
2023-04-02T05:48:22.952Z,2.10
2023-04-02T05:53:34.569Z,2.10
2023-04-02T05:58:45.333Z,2.30
2023-04-02T06:04:05.579Z,2.00
2023-04-02T06:09:18.537Z,2.00
2023-04-02T06:14:22.586Z,2.10
2023-04-02T06:19:33.103Z,2.10
2023-04-02T06:24:41.109Z,1.90
2023-04-02T06:29:47.365Z,1.90
2023-04-02T06:34:54.901Z,1.90
2023-04-02T06:39:59.551Z,2.00
2023-04-02T06:45:04.221Z,2.10
2023-04-02T06:50:34.665Z,2.10
2023-04-02T06:55:46.367Z,2.20
2023-04-02T07:00:51.433Z,2.30
2023-04-02T07:06:03.745Z,2.40
2023-04-02T07:11:13.860Z,2.40
2023-04-02T07:16:20.481Z,2.50
2023-04-02T07:21:23.544Z,2.40
2023-04-02T07:26:28.563Z,2.70
2023-04-02T07:31:31.256Z,2.50
2023-04-02T07:36:33.918Z,2.50
2023-04-02T07:41:52.584Z,2.60
2023-04-02T07:46:55.430Z,2.60
2023-04-02T07:51:57.814Z,2.40
2023-04-02T07:57:03.733Z,2.50
2023-04-02T08:02:06.352Z,2.70
2023-04-02T08:07:09.024Z,3.00
2023-04-02T08:12:14.665Z,3.10
2023-04-02T08:17:18.629Z,3.50
2023-04-02T08:22:21.136Z,3.60
2023-04-02T08:27:25.486Z,3.50
2023-04-02T08:32:28.208Z,3.10
2023-04-02T08:37:30.808Z,3.20
2023-04-02T08:42:43.159Z,3.40
2023-04-02T08:47:45.773Z,3.50
2023-04-02T08:52:48.511Z,3.50
2023-04-02T08:58:01.764Z,3.40
2023-04-02T09:03:13.272Z,3.70
2023-04-02T09:08:20.401Z,3.50
2023-04-02T09:13:27.923Z,3.30
2023-04-02T09:18:33.604Z,3.30
2023-04-02T09:23:36.143Z,3.40
2023-04-02T09:28:41.434Z,3.40
2023-04-02T09:33:46.397Z,3.80
2023-04-02T09:39:01.557Z,3.80
2023-04-02T09:44:27.007Z,3.80
2023-04-02T09:49:32.766Z,3.40
2023-04-02T09:54:36.015Z,3.70
2023-04-02T09:59:39.924Z,3.50
2023-04-02T10:04:48.639Z,3.50
2023-04-02T10:09:59.581Z,3.40
2023-04-02T10:15:06.165Z,3.50
2023-04-02T10:20:21.841Z,3.40
2023-04-02T10:25:32.310Z,3.60
2023-04-02T10:30:53.454Z,3.90
2023-04-02T10:36:08.467Z,3.60
2023-04-02T10:41:31.129Z,3.90
2023-04-02T10:46:44.955Z,4.00
2023-04-02T10:51:58.273Z,3.80
2023-04-02T10:57:10.670Z,3.60
2023-04-02T11:02:32.622Z,3.70
2023-04-02T11:07:51.781Z,3.70
2023-04-02T11:13:03.388Z,4.00
2023-04-02T11:18:20.832Z,3.70
2023-04-02T11:23:28.168Z,3.90
2023-04-02T11:28:33.020Z,4.30
2023-04-02T11:33:44.688Z,4.50
2023-04-02T11:38:52.398Z,4.30
2023-04-02T11:44:22.773Z,4.30
2023-04-02T11:50:01.738Z,4.20
2023-04-02T11:55:27.982Z,4.30
2023-04-02T12:01:01.305Z,4.30
2023-04-02T12:06:18.121Z,4.60
2023-04-02T12:11:32.590Z,4.30
2023-04-02T12:16:35.670Z,4.60
2023-04-02T12:21:46.961Z,5.00
2023-04-02T12:27:06.265Z,4.80
2023-04-02T12:32:28.981Z,4.90
2023-04-02T12:37:33.726Z,4.50
2023-04-02T12:42:37.551Z,4.80
2023-04-02T12:47:45.732Z,4.70
2023-04-02T12:52:52.281Z,4.90
2023-04-02T12:57:57.632Z,5.00
2023-04-02T13:03:15.933Z,4.90
2023-04-02T13:08:24.923Z,4.70
2023-04-02T13:13:34.182Z,4.50
2023-04-02T13:18:38.945Z,5.00
2023-04-02T13:23:43.593Z,4.70
2023-04-02T13:28:58.060Z,4.60
2023-04-02T13:34:00.824Z,5.00
2023-04-02T13:39:06.290Z,4.70
2023-04-02T13:44:23.599Z,4.60
2023-04-02T13:49:27.197Z,4.40
2023-04-02T13:54:40.761Z,4.60
2023-04-02T13:59:43.386Z,4.30
2023-04-02T14:04:51.297Z,4.20
2023-04-02T14:10:18.120Z,4.40
2023-04-02T14:15:36.576Z,4.40
2023-04-02T14:20:52.493Z,4.30
2023-04-02T14:26:08.816Z,4.40
2023-04-02T14:31:21.613Z,4.20
2023-04-02T14:36:38.763Z,4.50
2023-04-02T14:41:56.608Z,4.40
2023-04-02T14:47:14.108Z,4.50
2023-04-02T14:52:20.951Z,4.60
2023-04-02T14:57:30.254Z,4.30
2023-04-02T15:02:43.738Z,4.20
2023-04-02T15:07:53.714Z,4.40
2023-04-02T15:13:04.352Z,4.20
2023-04-02T15:18:11.521Z,4.10
2023-04-02T15:23:26.949Z,4.20
2023-04-02T15:28:41.123Z,4.20
2023-04-02T15:33:47.870Z,4.00
2023-04-02T15:39:01.106Z,4.10
2023-04-02T15:44:13.504Z,4.10
2023-04-02T15:49:41.985Z,4.10
2023-04-02T15:55:04.711Z,4.00
2023-04-02T16:00:30.906Z,4.10
2023-04-02T16:05:44.137Z,4.00
2023-04-02T16:10:47.101Z,4.00
2023-04-02T16:15:56.330Z,3.90
2023-04-02T16:21:05.483Z,3.70
2023-04-02T16:26:34.350Z,3.80
2023-04-02T16:31:50.158Z,3.70
2023-04-02T16:37:03.374Z,3.60
2023-04-02T16:42:23.289Z,3.50
2023-04-02T16:47:48.711Z,3.60
2023-04-02T16:53:01.373Z,3.50
2023-04-02T16:58:28.160Z,3.30
2023-04-02T17:04:02.319Z,3.20
2023-04-02T17:09:16.370Z,3.20
2023-04-02T17:14:34.293Z,2.90
2023-04-02T17:19:43.301Z,2.80
2023-04-02T17:24:53.394Z,2.80
2023-04-02T17:30:04.141Z,2.80
2023-04-02T17:35:24.912Z,2.70
2023-04-02T17:40:39.964Z,2.50
2023-04-02T17:45:50.304Z,2.50
2023-04-02T17:51:09.586Z,2.40
2023-04-02T17:56:42.712Z,2.20
2023-04-02T18:01:53.493Z,2.20
2023-04-02T18:07:24.461Z,2.10
2023-04-02T18:12:44.728Z,2.20
2023-04-02T18:17:52.987Z,2.00
2023-04-02T18:23:07.934Z,2.00
2023-04-02T18:28:45.764Z,1.80
2023-04-02T18:34:45.062Z,1.80
2023-04-02T18:40:16.729Z,1.80
2023-04-02T18:45:29.099Z,1.70
2023-04-02T18:50:35.770Z,1.60
2023-04-02T18:55:48.314Z,1.70
2023-04-02T19:00:52.049Z,1.70
2023-04-02T19:06:02.282Z,1.60
2023-04-02T19:11:13.433Z,1.50
2023-04-02T19:16:42.920Z,1.40
2023-04-02T19:22:15.434Z,1.50
2023-04-02T19:27:30.216Z,1.40
2023-04-02T19:32:48.814Z,1.40
2023-04-02T19:38:04.800Z,1.30
2023-04-02T19:43:11.196Z,1.20
2023-04-02T19:48:18.729Z,1.30
2023-04-02T19:53:21.576Z,1.20
2023-04-02T19:58:29.278Z,1.30
2023-04-02T20:03:32.030Z,1.20
2023-04-02T20:08:35.227Z,1.20
2023-04-02T20:13:39.141Z,1.20
2023-04-02T20:18:41.823Z,1.20
2023-04-02T20:23:44.734Z,1.40
2023-04-02T20:28:48.903Z,1.00
2023-04-02T20:33:57.164Z,1.00
2023-04-02T20:39:00.037Z,0.90
2023-04-02T20:44:04.255Z,1.00
2023-04-02T20:49:06.816Z,1.00
2023-04-02T20:54:09.349Z,1.20
2023-04-02T20:59:13.733Z,1.20
2023-04-02T21:04:16.372Z,1.00
2023-04-02T21:09:18.935Z,1.10
2023-04-02T21:14:22.800Z,0.80
2023-04-02T21:19:25.369Z,0.80
2023-04-02T21:24:30.536Z,0.90
2023-04-02T21:29:34.564Z,0.70
2023-04-02T21:34:37.229Z,0.90
2023-04-02T21:39:39.790Z,0.80
2023-04-02T21:44:43.816Z,0.80
2023-04-02T21:49:46.249Z,0.60
2023-04-02T21:54:51.565Z,0.80
2023-04-02T21:59:55.481Z,0.80
2023-04-02T22:04:58.282Z,0.70
2023-04-02T22:10:04.447Z,0.80
2023-04-02T22:15:11.182Z,0.80
2023-04-02T22:20:13.857Z,0.90
2023-04-02T22:25:16.768Z,0.60
2023-04-02T22:30:23.691Z,0.60
2023-04-02T22:35:26.072Z,0.70
2023-04-02T22:40:28.591Z,0.90
2023-04-02T22:45:35.123Z,0.60
2023-04-02T22:50:38.965Z,0.50
2023-04-02T22:55:44.018Z,0.50
2023-04-02T23:00:48.847Z,0.50
2023-04-02T23:06:00.230Z,0.50
2023-04-02T23:11:05.577Z,0.50
2023-04-02T23:16:13.084Z,0.60
2023-04-02T23:21:16.542Z,0.40
2023-04-02T23:26:22.197Z,0.50
2023-04-02T23:31:26.838Z,0.40
2023-04-02T23:36:32.388Z,0.50
2023-04-02T23:41:35.680Z,0.70
2023-04-02T23:46:42.532Z,0.80
2023-04-02T23:51:48.972Z,0.50
2023-04-02T23:56:51.451Z,0.40
